sensor_id;sensor_type;location;lat;lon;timestamp;pressure;altitude;pressure_sealevel;temperature;humidity
58757;BME280;44527;47.460;19.016;2023-04-05T00:02:10;100581.09;;;3.30;45.58
58757;BME280;44527;47.460;19.016;2023-04-05T00:05:15;100580.03;;;3.37;45.78
58757;BME280;44527;47.460;19.016;2023-04-05T00:08:30;100580.69;;;3.42;45.08
58757;BME280;44527;47.460;19.016;2023-04-05T00:11:32;100578.16;;;3.41;45.64
58757;BME280;44527;47.460;19.016;2023-04-05T00:14:35;100571.12;;;3.18;45.69
58757;BME280;44527;47.460;19.016;2023-04-05T00:17:38;100574.50;;;3.20;45.11
58757;BME280;44527;47.460;19.016;2023-04-05T00:20:40;100571.06;;;3.19;46.75
58757;BME280;44527;47.460;19.016;2023-04-05T00:23:43;100568.03;;;3.33;45.50
58757;BME280;44527;47.460;19.016;2023-04-05T00:26:46;100566.31;;;3.34;45.30
58757;BME280;44527;47.460;19.016;2023-04-05T00:29:48;100561.44;;;3.23;46.40
58757;BME280;44527;47.460;19.016;2023-04-05T00:32:50;100557.22;;;3.47;45.73
58757;BME280;44527;47.460;19.016;2023-04-05T00:35:53;100562.06;;;3.31;46.25
58757;BME280;44527;47.460;19.016;2023-04-05T00:38:55;100563.59;;;3.37;45.35
58757;BME280;44527;47.460;19.016;2023-04-05T00:41:58;100561.50;;;3.48;46.17
58757;BME280;44527;47.460;19.016;2023-04-05T00:45:00;100561.56;;;3.47;44.71
58757;BME280;44527;47.460;19.016;2023-04-05T00:48:04;100552.91;;;3.19;46.47
58757;BME280;44527;47.460;19.016;2023-04-05T00:51:06;100565.63;;;3.27;46.57
58757;BME280;44527;47.460;19.016;2023-04-05T00:54:13;100555.41;;;3.22;46.47
58757;BME280;44527;47.460;19.016;2023-04-05T00:57:16;100566.72;;;3.20;46.56
58757;BME280;44527;47.460;19.016;2023-04-05T01:00:19;100563.97;;;2.98;46.75
58757;BME280;44527;47.460;19.016;2023-04-05T01:03:22;100567.13;;;3.08;47.34
58757;BME280;44527;47.460;19.016;2023-04-05T01:09:36;100559.31;;;3.09;46.41
58757;BME280;44527;47.460;19.016;2023-04-05T01:12:42;100552.44;;;2.80;48.11
58757;BME280;44527;47.460;19.016;2023-04-05T01:15:44;100553.88;;;3.17;45.88
58757;BME280;44527;47.460;19.016;2023-04-05T01:18:48;100548.31;;;3.01;46.81
58757;BME280;44527;47.460;19.016;2023-04-05T01:31:59;100553.69;;;2.95;46.83
58757;BME280;44527;47.460;19.016;2023-04-05T01:35:20;100552.41;;;2.82;47.59
58757;BME280;44527;47.460;19.016;2023-04-05T01:38:24;100553.78;;;2.64;47.30
58757;BME280;44527;47.460;19.016;2023-04-05T01:41:30;100551.63;;;2.78;47.97
58757;BME280;44527;47.460;19.016;2023-04-05T01:44:35;100551.88;;;2.70;48.25
58757;BME280;44527;47.460;19.016;2023-04-05T01:47:37;100553.53;;;2.73;46.87
58757;BME280;44527;47.460;19.016;2023-04-05T01:50:41;100544.44;;;2.88;48.58
58757;BME280;44527;47.460;19.016;2023-04-05T01:53:44;100547.41;;;2.75;47.17
58757;BME280;44527;47.460;19.016;2023-04-05T01:56:48;100547.91;;;2.57;48.86
58757;BME280;44527;47.460;19.016;2023-04-05T01:59:50;100539.47;;;2.50;49.17
58757;BME280;44527;47.460;19.016;2023-04-05T02:02:52;100549.00;;;2.50;50.97
58757;BME280;44527;47.460;19.016;2023-04-05T02:05:55;100548.34;;;2.43;51.59
58757;BME280;44527;47.460;19.016;2023-04-05T02:08:58;100543.19;;;2.42;49.83
58757;BME280;44527;47.460;19.016;2023-04-05T02:12:00;100544.03;;;2.13;52.04
58757;BME280;44527;47.460;19.016;2023-04-05T02:15:04;100537.09;;;2.15;52.93
58757;BME280;44527;47.460;19.016;2023-04-05T02:18:07;100545.13;;;2.05;53.79
58757;BME280;44527;47.460;19.016;2023-04-05T02:21:10;100541.53;;;2.10;54.22
58757;BME280;44527;47.460;19.016;2023-04-05T02:24:12;100540.81;;;2.04;53.20
58757;BME280;44527;47.460;19.016;2023-04-05T02:27:15;100538.87;;;2.11;52.99
58757;BME280;44527;47.460;19.016;2023-04-05T02:30:17;100541.28;;;1.88;53.95
58757;BME280;44527;47.460;19.016;2023-04-05T02:33:20;100534.72;;;1.74;54.61
58757;BME280;44527;47.460;19.016;2023-04-05T02:36:25;100532.94;;;1.44;55.09
58757;BME280;44527;47.460;19.016;2023-04-05T02:39:36;100534.72;;;1.07;55.58
58757;BME280;44527;47.460;19.016;2023-04-05T02:42:39;100532.66;;;1.20;55.15
58757;BME280;44527;47.460;19.016;2023-04-05T02:45:41;100528.78;;;1.38;55.12
58757;BME280;44527;47.460;19.016;2023-04-05T02:48:48;100540.12;;;1.32;54.77
58757;BME280;44527;47.460;19.016;2023-04-05T02:51:50;100532.37;;;0.97;56.16
58757;BME280;44527;47.460;19.016;2023-04-05T02:54:53;100523.38;;;0.76;57.41
58757;BME280;44527;47.460;19.016;2023-04-05T02:57:57;100534.44;;;0.43;58.67
58757;BME280;44527;47.460;19.016;2023-04-05T03:01:02;100533.97;;;0.25;59.64
58757;BME280;44527;47.460;19.016;2023-04-05T03:04:11;100530.88;;;0.49;59.25
58757;BME280;44527;47.460;19.016;2023-04-05T03:07:13;100532.50;;;0.90;58.72
58757;BME280;44527;47.460;19.016;2023-04-05T03:10:20;100529.31;;;0.79;58.43
58757;BME280;44527;47.460;19.016;2023-04-05T03:13:28;100534.19;;;0.91;58.48
58757;BME280;44527;47.460;19.016;2023-04-05T03:16:31;100536.47;;;0.28;60.49
58757;BME280;44527;47.460;19.016;2023-04-05T03:19:34;100538.19;;;0.29;61.00
58757;BME280;44527;47.460;19.016;2023-04-05T03:22:38;100538.50;;;0.54;60.56
58757;BME280;44527;47.460;19.016;2023-04-05T03:25:40;100532.41;;;0.16;61.75
58757;BME280;44527;47.460;19.016;2023-04-05T03:28:47;100544.88;;;-0.06;63.17
58757;BME280;44527;47.460;19.016;2023-04-05T03:31:50;100544.75;;;0.02;62.90
58757;BME280;44527;47.460;19.016;2023-04-05T03:34:53;100547.12;;;0.12;62.71
58757;BME280;44527;47.460;19.016;2023-04-05T03:37:57;100541.91;;;0.14;63.07
58757;BME280;44527;47.460;19.016;2023-04-05T03:41:01;100550.91;;;0.38;62.09
58757;BME280;44527;47.460;19.016;2023-04-05T03:44:03;100555.22;;;0.36;62.98
58757;BME280;44527;47.460;19.016;2023-04-05T03:47:07;100553.06;;;0.16;63.10
58757;BME280;44527;47.460;19.016;2023-04-05T03:50:09;100552.28;;;0.11;63.94
58757;BME280;44527;47.460;19.016;2023-04-05T03:53:14;100558.81;;;0.29;63.31
58757;BME280;44527;47.460;19.016;2023-04-05T03:56:21;100556.63;;;0.10;63.37
58757;BME280;44527;47.460;19.016;2023-04-05T03:59:24;100561.06;;;0.02;63.73
58757;BME280;44527;47.460;19.016;2023-04-05T04:02:27;100561.56;;;0.21;62.50
58757;BME280;44527;47.460;19.016;2023-04-05T04:05:30;100569.88;;;0.35;62.44
58757;BME280;44527;47.460;19.016;2023-04-05T04:08:33;100566.88;;;0.12;63.09
58757;BME280;44527;47.460;19.016;2023-04-05T04:11:35;100571.31;;;0.05;63.38
58757;BME280;44527;47.460;19.016;2023-04-05T04:14:38;100568.84;;;0.01;63.45
58757;BME280;44527;47.460;19.016;2023-04-05T04:17:41;100570.19;;;0.20;62.63
58757;BME280;44527;47.460;19.016;2023-04-05T04:20:45;100571.22;;;0.11;63.07
58757;BME280;44527;47.460;19.016;2023-04-05T04:23:50;100568.50;;;0.19;63.21
58757;BME280;44527;47.460;19.016;2023-04-05T04:26:54;100569.88;;;0.37;62.94
58757;BME280;44527;47.460;19.016;2023-04-05T04:29:57;100575.75;;;0.42;61.97
58757;BME280;44527;47.460;19.016;2023-04-05T04:33:05;100568.91;;;0.41;62.10
58757;BME280;44527;47.460;19.016;2023-04-05T04:36:13;100571.94;;;0.60;61.92
58757;BME280;44527;47.460;19.016;2023-04-05T04:39:16;100578.59;;;0.70;61.08
58757;BME280;44527;47.460;19.016;2023-04-05T04:42:19;100571.47;;;0.83;60.75
58757;BME280;44527;47.460;19.016;2023-04-05T04:45:24;100572.31;;;0.83;60.13
58757;BME280;44527;47.460;19.016;2023-04-05T04:48:29;100570.84;;;0.30;61.79
58757;BME280;44527;47.460;19.016;2023-04-05T04:51:38;100573.16;;;0.43;61.39
58757;BME280;44527;47.460;19.016;2023-04-05T04:54:40;100570.13;;;0.65;61.19
58757;BME280;44527;47.460;19.016;2023-04-05T04:57:43;100573.16;;;0.84;59.95
58757;BME280;44527;47.460;19.016;2023-04-05T05:00:46;100586.22;;;0.76;60.49
58757;BME280;44527;47.460;19.016;2023-04-05T05:03:49;100585.69;;;1.01;59.96
58757;BME280;44527;47.460;19.016;2023-04-05T05:06:52;100589.28;;;0.95;59.95
58757;BME280;44527;47.460;19.016;2023-04-05T05:09:55;100586.50;;;1.03;59.55
58757;BME280;44527;47.460;19.016;2023-04-05T05:12:58;100584.44;;;1.53;57.94
58757;BME280;44527;47.460;19.016;2023-04-05T05:16:00;100584.34;;;1.56;58.10
58757;BME280;44527;47.460;19.016;2023-04-05T05:19:03;100579.59;;;1.73;58.05
58757;BME280;44527;47.460;19.016;2023-04-05T05:22:11;100585.72;;;2.94;72.00
58757;BME280;44527;47.460;19.016;2023-04-05T05:25:14;100585.59;;;3.52;55.50
58757;BME280;44527;47.460;19.016;2023-04-05T05:28:17;100597.16;;;5.11;50.16
58757;BME280;44527;47.460;19.016;2023-04-05T05:31:19;100594.34;;;6.60;46.15
58757;BME280;44527;47.460;19.016;2023-04-05T05:34:21;100598.69;;;7.87;42.58
58757;BME280;44527;47.460;19.016;2023-04-05T05:37:29;100607.19;;;8.59;40.51
58757;BME280;44527;47.460;19.016;2023-04-05T05:40:32;100599.94;;;9.57;38.54
58757;BME280;44527;47.460;19.016;2023-04-05T05:43:34;100590.47;;;9.85;37.80
58757;BME280;44527;47.460;19.016;2023-04-05T05:46:36;100598.06;;;10.48;36.50
58757;BME280;44527;47.460;19.016;2023-04-05T05:49:39;100596.03;;;11.89;34.66
58757;BME280;44527;47.460;19.016;2023-04-05T05:52:41;100596.81;;;11.77;32.43
58757;BME280;44527;47.460;19.016;2023-04-05T05:55:44;100602.47;;;12.10;32.53
58757;BME280;44527;47.460;19.016;2023-04-05T05:58:47;100602.94;;;13.16;30.43
58757;BME280;44527;47.460;19.016;2023-04-05T06:01:50;100592.94;;;13.08;30.45
58757;BME280;44527;47.460;19.016;2023-04-05T06:04:53;100592.63;;;14.86;25.91
58757;BME280;44527;47.460;19.016;2023-04-05T06:07:55;100589.44;;;13.91;25.61
58757;BME280;44527;47.460;19.016;2023-04-05T06:10:58;100590.19;;;13.93;25.30
58757;BME280;44527;47.460;19.016;2023-04-05T06:14:00;100592.16;;;13.19;26.29
58757;BME280;44527;47.460;19.016;2023-04-05T06:17:02;100587.84;;;13.42;25.89
58757;BME280;44527;47.460;19.016;2023-04-05T06:20:05;100586.47;;;12.01;27.16
58757;BME280;44527;47.460;19.016;2023-04-05T06:23:07;100595.88;;;13.04;25.35
58757;BME280;44527;47.460;19.016;2023-04-05T06:26:16;100593.19;;;13.29;25.16
58757;BME280;44527;47.460;19.016;2023-04-05T06:29:20;100587.19;;;13.87;25.08
58757;BME280;44527;47.460;19.016;2023-04-05T06:32:22;100596.13;;;13.73;25.16
58757;BME280;44527;47.460;19.016;2023-04-05T06:35:24;100590.59;;;14.11;24.65
58757;BME280;44527;47.460;19.016;2023-04-05T06:38:27;100593.47;;;14.31;24.18
58757;BME280;44527;47.460;19.016;2023-04-05T06:41:29;100600.44;;;14.65;23.45
58757;BME280;44527;47.460;19.016;2023-04-05T06:44:31;100595.28;;;14.75;24.03
58757;BME280;44527;47.460;19.016;2023-04-05T06:47:34;100601.88;;;14.81;23.68
58757;BME280;44527;47.460;19.016;2023-04-05T06:50:36;100600.63;;;15.39;22.59
58757;BME280;44527;47.460;19.016;2023-04-05T06:53:39;100605.00;;;15.94;21.92
58757;BME280;44527;47.460;19.016;2023-04-05T06:56:41;100596.78;;;15.97;23.01
58757;BME280;44527;47.460;19.016;2023-04-05T06:59:43;100604.53;;;16.40;22.61
58757;BME280;44527;47.460;19.016;2023-04-05T07:02:45;100601.31;;;16.06;22.61
58757;BME280;44527;47.460;19.016;2023-04-05T07:05:55;100594.19;;;15.65;23.03
58757;BME280;44527;47.460;19.016;2023-04-05T07:09:00;100595.09;;;15.43;23.27
58757;BME280;44527;47.460;19.016;2023-04-05T07:12:03;100592.03;;;15.58;22.27
58757;BME280;44527;47.460;19.016;2023-04-05T07:15:06;100597.81;;;15.84;22.34
58757;BME280;44527;47.460;19.016;2023-04-05T07:18:10;100603.84;;;16.07;22.21
58757;BME280;44527;47.460;19.016;2023-04-05T07:21:15;100603.34;;;15.28;22.17
58757;BME280;44527;47.460;19.016;2023-04-05T07:24:18;100601.72;;;15.05;22.65
58757;BME280;44527;47.460;19.016;2023-04-05T07:27:20;100603.41;;;14.38;23.56
58757;BME280;44527;47.460;19.016;2023-04-05T07:30:22;100601.16;;;13.76;24.54
58757;BME280;44527;47.460;19.016;2023-04-05T07:33:25;100599.34;;;13.65;24.27
58757;BME280;44527;47.460;19.016;2023-04-05T07:36:28;100599.53;;;11.75;25.61
58757;BME280;44527;47.460;19.016;2023-04-05T07:39:32;100595.53;;;12.09;26.63
58757;BME280;44527;47.460;19.016;2023-04-05T07:42:34;100594.78;;;11.94;27.51
58757;BME280;44527;47.460;19.016;2023-04-05T07:45:36;100587.59;;;11.44;27.50
58757;BME280;44527;47.460;19.016;2023-04-05T07:48:38;100595.50;;;10.61;28.04
58757;BME280;44527;47.460;19.016;2023-04-05T07:51:41;100598.03;;;9.45;29.38
58757;BME280;44527;47.460;19.016;2023-04-05T07:54:44;100597.38;;;8.46;31.49
58757;BME280;44527;47.460;19.016;2023-04-05T07:57:47;100587.91;;;8.44;31.81
58757;BME280;44527;47.460;19.016;2023-04-05T08:00:50;100591.22;;;7.97;32.46
58757;BME280;44527;47.460;19.016;2023-04-05T08:03:54;100586.37;;;7.54;32.69
58757;BME280;44527;47.460;19.016;2023-04-05T08:06:59;100589.53;;;7.07;33.83
58757;BME280;44527;47.460;19.016;2023-04-05T08:10:02;100584.62;;;7.01;34.92
58757;BME280;44527;47.460;19.016;2023-04-05T08:13:06;100585.25;;;6.87;35.39
58757;BME280;44527;47.460;19.016;2023-04-05T08:16:11;100582.06;;;7.00;35.76
58757;BME280;44527;47.460;19.016;2023-04-05T08:19:13;100585.63;;;6.80;35.29
58757;BME280;44527;47.460;19.016;2023-04-05T08:22:16;100594.03;;;7.04;34.33
58757;BME280;44527;47.460;19.016;2023-04-05T08:25:19;100583.38;;;7.45;34.56
58757;BME280;44527;47.460;19.016;2023-04-05T08:28:22;100579.94;;;7.08;34.64
58757;BME280;44527;47.460;19.016;2023-04-05T08:31:24;100580.44;;;7.33;34.84
58757;BME280;44527;47.460;19.016;2023-04-05T08:34:27;100578.22;;;7.43;34.73
58757;BME280;44527;47.460;19.016;2023-04-05T08:37:33;100581.84;;;7.75;33.90
58757;BME280;44527;47.460;19.016;2023-04-05T08:40:38;100581.75;;;7.42;34.20
58757;BME280;44527;47.460;19.016;2023-04-05T08:43:54;100572.87;;;7.64;34.61
58757;BME280;44527;47.460;19.016;2023-04-05T08:46:57;100564.72;;;7.70;34.96
58757;BME280;44527;47.460;19.016;2023-04-05T08:50:01;100573.34;;;7.72;35.62
58757;BME280;44527;47.460;19.016;2023-04-05T08:53:05;100566.25;;;7.74;34.04
58757;BME280;44527;47.460;19.016;2023-04-05T08:56:08;100562.78;;;7.73;34.92
58757;BME280;44527;47.460;19.016;2023-04-05T08:59:12;100565.84;;;7.99;35.90
58757;BME280;44527;47.460;19.016;2023-04-05T09:02:18;100566.63;;;7.83;33.59
58757;BME280;44527;47.460;19.016;2023-04-05T09:05:22;100562.09;;;7.70;33.28
58757;BME280;44527;47.460;19.016;2023-04-05T09:08:24;100563.03;;;7.51;35.59
58757;BME280;44527;47.460;19.016;2023-04-05T09:11:28;100557.66;;;7.72;34.28
58757;BME280;44527;47.460;19.016;2023-04-05T09:14:32;100556.41;;;7.62;36.32
58757;BME280;44527;47.460;19.016;2023-04-05T09:17:35;100559.84;;;8.14;32.64
58757;BME280;44527;47.460;19.016;2023-04-05T09:20:39;100560.69;;;8.31;33.53
58757;BME280;44527;47.460;19.016;2023-04-05T09:23:49;100559.59;;;8.35;33.74
58757;BME280;44527;47.460;19.016;2023-04-05T09:27:02;100550.56;;;8.42;32.32
58757;BME280;44527;47.460;19.016;2023-04-05T09:30:07;100565.91;;;8.95;31.72
58757;BME280;44527;47.460;19.016;2023-04-05T09:33:22;100559.25;;;8.58;30.91
58757;BME280;44527;47.460;19.016;2023-04-05T09:36:25;100550.38;;;8.45;31.50
58757;BME280;44527;47.460;19.016;2023-04-05T09:39:30;100543.81;;;8.69;31.18
58757;BME280;44527;47.460;19.016;2023-04-05T09:42:42;100542.53;;;9.38;31.70
58757;BME280;44527;47.460;19.016;2023-04-05T09:45:47;100539.38;;;9.17;30.95
58757;BME280;44527;47.460;19.016;2023-04-05T09:48:50;100537.53;;;9.50;32.75
58757;BME280;44527;47.460;19.016;2023-04-05T09:51:52;100530.44;;;9.66;31.62
58757;BME280;44527;47.460;19.016;2023-04-05T09:54:55;100533.34;;;9.31;32.84
58757;BME280;44527;47.460;19.016;2023-04-05T09:57:57;100524.31;;;8.91;33.79
58757;BME280;44527;47.460;19.016;2023-04-05T10:01:00;100533.34;;;8.69;35.03
58757;BME280;44527;47.460;19.016;2023-04-05T10:04:18;100531.09;;;8.30;33.33
58757;BME280;44527;47.460;19.016;2023-04-05T10:07:21;100529.97;;;8.18;33.10
58757;BME280;44527;47.460;19.016;2023-04-05T10:10:23;100534.22;;;8.37;32.08
58757;BME280;44527;47.460;19.016;2023-04-05T10:13:26;100523.03;;;8.50;34.10
58757;BME280;44527;47.460;19.016;2023-04-05T10:16:29;100510.88;;;8.81;33.95
58757;BME280;44527;47.460;19.016;2023-04-05T10:22:40;100533.50;;;8.50;33.76
58757;BME280;44527;47.460;19.016;2023-04-05T10:28:56;100516.72;;;8.05;33.80
58757;BME280;44527;47.460;19.016;2023-04-05T10:32:09;100516.03;;;8.02;33.48
58757;BME280;44527;47.460;19.016;2023-04-05T10:35:16;100511.00;;;8.15;30.16
58757;BME280;44527;47.460;19.016;2023-04-05T10:38:20;100510.91;;;8.32;31.86
58757;BME280;44527;47.460;19.016;2023-04-05T10:41:25;100510.88;;;8.49;29.69
58757;BME280;44527;47.460;19.016;2023-04-05T10:44:29;100507.50;;;8.47;32.78
58757;BME280;44527;47.460;19.016;2023-04-05T10:47:33;100502.19;;;8.49;36.80
58757;BME280;44527;47.460;19.016;2023-04-05T10:50:39;100518.06;;;8.46;35.86
58757;BME280;44527;47.460;19.016;2023-04-05T10:53:43;100504.16;;;8.28;33.96
58757;BME280;44527;47.460;19.016;2023-04-05T10:56:47;100512.53;;;8.35;33.56
58757;BME280;44527;47.460;19.016;2023-04-05T10:59:50;100500.84;;;8.58;33.15
58757;BME280;44527;47.460;19.016;2023-04-05T11:02:55;100495.97;;;8.51;32.21
58757;BME280;44527;47.460;19.016;2023-04-05T11:09:19;100487.13;;;9.00;32.63
58757;BME280;44527;47.460;19.016;2023-04-05T11:15:44;100494.87;;;9.02;34.35
58757;BME280;44527;47.460;19.016;2023-04-05T11:18:48;100490.09;;;8.78;33.91
58757;BME280;44527;47.460;19.016;2023-04-05T11:21:59;100495.00;;;8.84;36.71
58757;BME280;44527;47.460;19.016;2023-04-05T11:25:02;100488.88;;;8.69;34.02
58757;BME280;44527;47.460;19.016;2023-04-05T11:28:05;100488.25;;;8.80;34.63
58757;BME280;44527;47.460;19.016;2023-04-05T11:31:11;100485.28;;;8.86;34.61
58757;BME280;44527;47.460;19.016;2023-04-05T11:34:14;100483.09;;;8.63;33.85
58757;BME280;44527;47.460;19.016;2023-04-05T11:40:47;100478.31;;;8.55;31.44
58757;BME280;44527;47.460;19.016;2023-04-05T11:43:49;100477.34;;;9.04;31.68
58757;BME280;44527;47.460;19.016;2023-04-05T11:46:53;100465.81;;;9.36;31.77
58757;BME280;44527;47.460;19.016;2023-04-05T11:49:55;100471.00;;;9.52;33.67
58757;BME280;44527;47.460;19.016;2023-04-05T11:53:33;100456.22;;;9.65;33.16
58757;BME280;44527;47.460;19.016;2023-04-05T11:56:28;100465.06;;;9.34;33.86
58757;BME280;44527;47.460;19.016;2023-04-05T11:59:31;100461.44;;;9.37;31.92
58757;BME280;44527;47.460;19.016;2023-04-05T12:02:34;100466.16;;;9.30;30.17
58757;BME280;44527;47.460;19.016;2023-04-05T12:05:48;100456.81;;;9.26;32.03
58757;BME280;44527;47.460;19.016;2023-04-05T12:08:54;100460.44;;;9.09;31.59
58757;BME280;44527;47.460;19.016;2023-04-05T12:11:57;100454.34;;;8.79;32.04
58757;BME280;44527;47.460;19.016;2023-04-05T12:15:00;100455.97;;;8.95;32.48
58757;BME280;44527;47.460;19.016;2023-04-05T12:18:10;100445.88;;;8.73;29.95
58757;BME280;44527;47.460;19.016;2023-04-05T12:21:15;100438.19;;;9.16;29.97
58757;BME280;44527;47.460;19.016;2023-04-05T12:24:21;100439.38;;;9.55;34.81
58757;BME280;44527;47.460;19.016;2023-04-05T12:27:24;100440.22;;;9.56;31.52
58757;BME280;44527;47.460;19.016;2023-04-05T12:30:27;100432.72;;;9.50;30.85
58757;BME280;44527;47.460;19.016;2023-04-05T12:33:39;100439.94;;;9.46;31.41
58757;BME280;44527;47.460;19.016;2023-04-05T12:36:42;100434.09;;;9.41;32.97
58757;BME280;44527;47.460;19.016;2023-04-05T12:39:50;100440.63;;;9.19;31.41
58757;BME280;44527;47.460;19.016;2023-04-05T12:43:05;100442.16;;;8.78;33.17
58757;BME280;44527;47.460;19.016;2023-04-05T12:46:08;100429.12;;;8.92;33.15
58757;BME280;44527;47.460;19.016;2023-04-05T12:49:12;100435.62;;;9.15;30.57
58757;BME280;44527;47.460;19.016;2023-04-05T12:52:18;100433.19;;;9.12;30.62
58757;BME280;44527;47.460;19.016;2023-04-05T12:55:23;100438.25;;;9.01;30.30
58757;BME280;44527;47.460;19.016;2023-04-05T12:58:33;100426.28;;;9.11;30.61
58757;BME280;44527;47.460;19.016;2023-04-05T13:01:37;100418.50;;;9.54;28.79
58757;BME280;44527;47.460;19.016;2023-04-05T13:04:41;100424.63;;;9.24;29.40
58757;BME280;44527;47.460;19.016;2023-04-05T13:07:44;100414.47;;;9.34;28.06
58757;BME280;44527;47.460;19.016;2023-04-05T13:10:49;100403.50;;;9.41;28.74
58757;BME280;44527;47.460;19.016;2023-04-05T13:13:52;100406.53;;;9.50;28.53
58757;BME280;44527;47.460;19.016;2023-04-05T13:16:54;100400.06;;;9.70;28.71
58757;BME280;44527;47.460;19.016;2023-04-05T13:19:58;100397.63;;;9.81;29.32
58757;BME280;44527;47.460;19.016;2023-04-05T13:23:00;100402.31;;;9.61;30.31
58757;BME280;44527;47.460;19.016;2023-04-05T13:26:03;100396.22;;;9.47;31.27
58757;BME280;44527;47.460;19.016;2023-04-05T13:29:05;100401.00;;;9.69;29.01
58757;BME280;44527;47.460;19.016;2023-04-05T13:32:08;100398.66;;;9.50;30.21
58757;BME280;44527;47.460;19.016;2023-04-05T13:35:11;100387.88;;;9.54;30.12
58757;BME280;44527;47.460;19.016;2023-04-05T13:38:13;100389.87;;;9.65;28.51
58757;BME280;44527;47.460;19.016;2023-04-05T13:41:15;100395.00;;;9.66;30.70
58757;BME280;44527;47.460;19.016;2023-04-05T13:44:18;100391.44;;;9.82;30.15
58757;BME280;44527;47.460;19.016;2023-04-05T13:47:20;100390.97;;;9.89;29.97
58757;BME280;44527;47.460;19.016;2023-04-05T13:50:23;100387.00;;;9.97;30.37
58757;BME280;44527;47.460;19.016;2023-04-05T13:53:25;100378.88;;;9.73;28.84
58757;BME280;44527;47.460;19.016;2023-04-05T13:56:30;100377.97;;;9.31;28.70
58757;BME280;44527;47.460;19.016;2023-04-05T13:59:32;100377.31;;;9.56;29.80
58757;BME280;44527;47.460;19.016;2023-04-05T14:02:35;100375.25;;;9.61;29.88
58757;BME280;44527;47.460;19.016;2023-04-05T14:05:38;100377.03;;;9.75;28.40
58757;BME280;44527;47.460;19.016;2023-04-05T14:08:40;100372.44;;;9.35;29.13
58757;BME280;44527;47.460;19.016;2023-04-05T14:11:43;100383.84;;;9.49;29.71
58757;BME280;44527;47.460;19.016;2023-04-05T14:14:46;100375.06;;;9.35;29.28
58757;BME280;44527;47.460;19.016;2023-04-05T14:17:48;100376.66;;;9.38;30.00
58757;BME280;44527;47.460;19.016;2023-04-05T14:20:51;100373.53;;;9.03;30.56
58757;BME280;44527;47.460;19.016;2023-04-05T14:23:53;100378.19;;;8.97;31.48
58757;BME280;44527;47.460;19.016;2023-04-05T14:26:58;100372.03;;;8.98;30.89
58757;BME280;44527;47.460;19.016;2023-04-05T14:30:02;100371.78;;;9.17;31.22
58757;BME280;44527;47.460;19.016;2023-04-05T14:33:04;100378.06;;;9.29;31.42
58757;BME280;44527;47.460;19.016;2023-04-05T14:36:07;100369.81;;;9.21;30.40
58757;BME280;44527;47.460;19.016;2023-04-05T14:39:11;100376.34;;;9.14;29.90
58757;BME280;44527;47.460;19.016;2023-04-05T14:42:14;100371.03;;;9.15;29.94
58757;BME280;44527;47.460;19.016;2023-04-05T14:45:16;100371.31;;;9.25;30.00
58757;BME280;44527;47.460;19.016;2023-04-05T14:48:19;100373.94;;;9.25;30.90
58757;BME280;44527;47.460;19.016;2023-04-05T14:51:22;100372.78;;;9.15;29.93
58757;BME280;44527;47.460;19.016;2023-04-05T14:54:25;100381.03;;;9.23;30.61
58757;BME280;44527;47.460;19.016;2023-04-05T14:57:27;100378.78;;;9.17;31.47
58757;BME280;44527;47.460;19.016;2023-04-05T15:00:32;100380.13;;;9.38;30.90
58757;BME280;44527;47.460;19.016;2023-04-05T15:03:34;100378.06;;;9.43;32.03
58757;BME280;44527;47.460;19.016;2023-04-05T15:06:37;100376.06;;;9.04;29.79
58757;BME280;44527;47.460;19.016;2023-04-05T15:09:39;100375.91;;;9.22;31.08
58757;BME280;44527;47.460;19.016;2023-04-05T15:12:42;100377.31;;;9.41;31.08
58757;BME280;44527;47.460;19.016;2023-04-05T15:15:45;100385.53;;;9.35;32.14
58757;BME280;44527;47.460;19.016;2023-04-05T15:18:48;100386.19;;;9.39;32.06
58757;BME280;44527;47.460;19.016;2023-04-05T15:21:53;100383.31;;;9.43;31.09
58757;BME280;44527;47.460;19.016;2023-04-05T15:24:57;100389.00;;;9.50;29.91
58757;BME280;44527;47.460;19.016;2023-04-05T15:28:00;100388.16;;;9.35;31.06
58757;BME280;44527;47.460;19.016;2023-04-05T15:31:08;100384.78;;;9.19;31.26
58757;BME280;44527;47.460;19.016;2023-04-05T15:34:11;100386.94;;;9.12;29.94
58757;BME280;44527;47.460;19.016;2023-04-05T15:37:13;100384.03;;;9.17;30.08
58757;BME280;44527;47.460;19.016;2023-04-05T15:40:16;100379.19;;;9.39;29.53
58757;BME280;44527;47.460;19.016;2023-04-05T15:43:19;100391.22;;;9.13;29.82
58757;BME280;44527;47.460;19.016;2023-04-05T15:46:25;100385.41;;;9.08;31.10
58757;BME280;44527;47.460;19.016;2023-04-05T15:49:27;100385.34;;;9.10;30.18
58757;BME280;44527;47.460;19.016;2023-04-05T15:52:31;100382.47;;;9.29;31.32
58757;BME280;44527;47.460;19.016;2023-04-05T15:55:34;100389.66;;;9.25;30.01
58757;BME280;44527;47.460;19.016;2023-04-05T15:58:36;100387.19;;;9.08;32.25
58757;BME280;44527;47.460;19.016;2023-04-05T16:01:39;100385.22;;;9.11;31.33
58757;BME280;44527;47.460;19.016;2023-04-05T16:04:42;100391.50;;;9.23;31.70
58757;BME280;44527;47.460;19.016;2023-04-05T16:07:44;100391.62;;;9.22;30.99
58757;BME280;44527;47.460;19.016;2023-04-05T16:10:47;100397.06;;;9.03;29.87
58757;BME280;44527;47.460;19.016;2023-04-05T16:13:51;100389.50;;;8.98;30.41
58757;BME280;44527;47.460;19.016;2023-04-05T16:16:54;100398.66;;;8.91;31.92
58757;BME280;44527;47.460;19.016;2023-04-05T16:19:57;100393.72;;;8.70;30.14
58757;BME280;44527;47.460;19.016;2023-04-05T16:22:59;100393.41;;;8.61;30.11
58757;BME280;44527;47.460;19.016;2023-04-05T16:26:02;100395.09;;;8.62;30.20
58757;BME280;44527;47.460;19.016;2023-04-05T16:29:04;100394.94;;;8.49;30.99